createdAt,value
2023-04-07T00:00:13.196Z,99841.67
2023-04-07T00:01:15.407Z,99855.78
2023-04-07T00:02:18.284Z,99846.03
2023-04-07T00:03:20.825Z,99853.13
2023-04-07T00:04:23.442Z,99854.08
2023-04-07T00:05:25.743Z,99855.91
2023-04-07T00:06:28.146Z,99854.21
2023-04-07T00:07:30.697Z,99861.45
2023-04-07T00:08:33.073Z,99857.94
2023-04-07T00:09:35.356Z,99858.03
2023-04-07T00:10:37.841Z,99863.47
2023-04-07T00:11:40.142Z,99853.80
2023-04-07T00:12:42.207Z,99859.23
2023-04-07T00:13:45.278Z,99880.46
2023-04-07T00:14:47.333Z,99851.50
2023-04-07T00:15:49.614Z,99864.77
2023-04-07T00:16:52.072Z,99863.06
2023-04-07T00:17:54.224Z,99864.14
2023-04-07T00:18:56.407Z,99857.98
2023-04-07T00:19:59.100Z,99863.28
2023-04-07T00:21:01.459Z,99864.27
2023-04-07T00:22:04.118Z,99866.06
2023-04-07T00:23:06.295Z,99868.72
2023-04-07T00:24:08.356Z,99861.83
2023-04-07T00:25:10.706Z,99875.09
2023-04-07T00:26:13.367Z,99870.64
2023-04-07T00:27:16.294Z,99869.79
2023-04-07T00:28:19.516Z,99871.59
2023-04-07T00:29:22.531Z,99863.63
2023-04-07T00:30:24.989Z,99866.28
2023-04-07T00:31:27.293Z,99866.28
2023-04-07T00:32:30.089Z,99868.94
2023-04-07T00:33:32.585Z,99864.48
2023-04-07T00:34:34.860Z,99872.31
2023-04-07T00:35:37.206Z,99873.89
2023-04-07T00:36:41.182Z,99877.40
2023-04-07T00:37:43.551Z,99866.79
2023-04-07T00:38:45.769Z,99879.20
2023-04-07T00:39:47.824Z,99867.64
2023-04-07T00:40:58.780Z,99872.09
2023-04-07T00:42:03.260Z,99869.44
2023-04-07T00:43:05.390Z,99873.08
2023-04-07T00:44:07.579Z,99869.56
2023-04-07T00:45:11.061Z,99882.92
2023-04-07T00:46:13.846Z,99869.79
2023-04-07T00:47:16.020Z,99877.02
2023-04-07T00:48:18.601Z,99871.72
2023-04-07T00:49:21.369Z,99879.67
2023-04-07T00:50:24.304Z,99880.62
2023-04-07T00:51:26.576Z,99881.56
2023-04-07T00:52:29.582Z,99873.86
2023-04-07T00:53:32.249Z,99883.62
2023-04-07T00:54:34.985Z,99884.56
2023-04-07T00:55:37.278Z,99884.47
2023-04-07T00:56:41.344Z,99877.33
2023-04-07T00:57:44.807Z,99884.47
2023-04-07T00:58:47.547Z,99882.86
2023-04-07T01:01:06.286Z,99883.05
2023-04-07T01:02:18.444Z,99893.94
2023-04-07T01:03:27.336Z,99898.25
2023-04-07T01:04:43.768Z,99889.45
2023-04-07T01:05:52.673Z,99892.01
2023-04-07T01:06:57.132Z,99892.95
2023-04-07T01:08:11.841Z,99892.01
2023-04-07T01:09:26.827Z,99900.91
2023-04-07T01:12:12.191Z,99902.18
2023-04-07T01:13:22.774Z,99901.47
2023-04-07T01:14:28.484Z,99904.84
2023-04-07T01:15:33.883Z,99895.95
2023-04-07T01:16:45.842Z,99908.48
2023-04-07T01:17:52.561Z,99906.67
2023-04-07T01:19:10.832Z,99904.03
2023-04-07T01:20:16.661Z,99906.55
2023-04-07T01:21:22.513Z,99903.91
2023-04-07T01:24:02.313Z,99901.42
2023-04-07T01:25:40.269Z,99903.39
2023-04-07T01:26:43.197Z,99911.13
2023-04-07T01:28:03.866Z,99917.89
2023-04-07T01:29:32.486Z,99918.87
2023-04-07T01:37:10.276Z,99923.11
2023-04-07T01:40:20.535Z,99921.13
2023-04-07T01:42:27.257Z,99920.37
2023-04-07T01:43:30.594Z,99930.24
2023-04-07T01:44:33.716Z,99920.70
2023-04-07T01:45:37.145Z,99919.00
2023-04-07T01:46:41.274Z,99923.69
2023-04-07T01:47:44.974Z,99927.28
2023-04-07T01:48:48.348Z,99929.81
2023-04-07T01:49:51.280Z,99926.22
2023-04-07T01:50:54.435Z,99936.73
2023-04-07T01:51:57.585Z,99919.13
2023-04-07T01:53:00.504Z,99925.36
2023-04-07T01:54:04.060Z,99921.98
2023-04-07T01:55:07.648Z,99936.09
2023-04-07T01:56:12.144Z,99934.38
2023-04-07T01:57:15.172Z,99930.05
2023-04-07T01:58:17.792Z,99936.17
2023-04-07T01:59:20.318Z,99932.70
2023-04-07T02:00:24.243Z,99930.05
2023-04-07T02:01:28.631Z,99932.80
2023-04-07T02:02:34.514Z,99937.16
2023-04-07T02:03:46.656Z,99938.83
2023-04-07T02:04:54.421Z,99937.16
2023-04-07T02:05:59.917Z,99934.38
2023-04-07T02:07:08.969Z,99933.31
2023-04-07T02:08:15.669Z,99934.08
2023-04-07T02:09:20.109Z,99937.46
2023-04-07T02:10:25.286Z,99933.02
2023-04-07T02:11:29.194Z,99939.05
2023-04-07T02:12:35.095Z,99934.39
2023-04-07T02:13:39.371Z,99943.28
2023-04-07T02:14:45.029Z,99938.92
2023-04-07T02:15:49.925Z,99938.92
2023-04-07T02:16:54.701Z,99938.19
2023-04-07T02:17:58.460Z,99932.89
2023-04-07T02:19:01.764Z,99940.84
2023-04-07T02:20:07.695Z,99939.98
2023-04-07T02:21:13.495Z,99940.84
2023-04-07T02:22:16.002Z,99946.27
2023-04-07T02:23:18.471Z,99938.41
2023-04-07T02:24:21.186Z,99940.11
2023-04-07T02:25:32.215Z,99938.31
2023-04-07T02:26:35.784Z,99943.70
2023-04-07T02:27:38.184Z,99941.79
2023-04-07T02:28:40.425Z,99948.80
2023-04-07T02:29:42.576Z,99942.55
2023-04-07T02:30:45.451Z,99943.28
2023-04-07T02:31:47.684Z,99941.48
2023-04-07T02:32:49.979Z,99939.69
2023-04-07T02:33:52.505Z,99943.07
2023-04-07T02:34:55.494Z,99948.37
2023-04-07T02:35:57.590Z,99942.22
2023-04-07T02:37:00.093Z,99943.92
2023-04-07T02:38:02.916Z,99948.25
2023-04-07T02:39:05.091Z,99942.86
2023-04-07T02:40:10.154Z,99941.06
2023-04-07T02:41:12.529Z,99946.23
2023-04-07T02:42:14.701Z,99944.32
2023-04-07T02:43:17.080Z,99949.53
2023-04-07T02:44:19.043Z,99951.20
2023-04-07T02:45:21.307Z,99945.08
2023-04-07T02:46:23.933Z,99939.78
2023-04-07T02:47:27.167Z,99941.36
2023-04-07T02:48:30.712Z,99947.48
2023-04-07T02:49:32.847Z,99947.48
2023-04-07T02:50:35.091Z,99953.55
2023-04-07T02:51:37.265Z,99945.59
2023-04-07T02:52:40.535Z,99949.10
2023-04-07T02:53:44.951Z,99950.69
2023-04-07T02:54:48.787Z,99951.51
2023-04-07T02:55:53.296Z,99950.44
2023-04-07T02:56:55.710Z,99959.46
2023-04-07T02:57:59.445Z,99950.44
2023-04-07T02:59:03.425Z,99946.75
2023-04-07T03:00:09.420Z,99953.86
2023-04-07T03:01:22.643Z,99959.16
2023-04-07T03:02:25.194Z,99953.86
2023-04-07T03:03:28.378Z,99948.64
2023-04-07T03:04:44.188Z,99958.30
2023-04-07T03:05:47.326Z,99961.69
2023-04-07T03:06:49.839Z,99959.16
2023-04-07T03:07:52.145Z,99962.75
2023-04-07T03:08:54.343Z,99966.26
2023-04-07T03:09:57.361Z,99972.41
2023-04-07T03:11:00.320Z,99969.77
2023-04-07T03:12:04.240Z,99970.62
2023-04-07T03:13:08.384Z,99968.06
2023-04-07T03:14:10.603Z,99968.06
2023-04-07T03:15:18.876Z,99972.51
2023-04-07T03:16:23.676Z,99979.52
2023-04-07T03:17:33.622Z,99980.46
2023-04-07T03:18:36.087Z,99983.23
2023-04-07T03:19:39.323Z,99979.73
2023-04-07T03:20:41.884Z,99983.33
2023-04-07T03:21:45.432Z,99985.25
2023-04-07T03:22:47.520Z,99984.52
2023-04-07T03:23:54.913Z,99987.26
2023-04-07T03:24:57.498Z,99985.67
2023-04-07T03:26:00.083Z,99984.85
2023-04-07T03:27:04.098Z,99981.34
2023-04-07T03:28:10.947Z,99987.59
2023-04-07T03:29:13.533Z,99993.63
2023-04-07T03:30:17.369Z,99997.13
2023-04-07T03:31:20.350Z,99997.98
2023-04-07T03:32:24.526Z,99993.53
2023-04-07T03:33:27.706Z,99992.81
2023-04-07T03:34:31.027Z,99997.86
2023-04-07T03:35:34.122Z,99999.69
2023-04-07T03:36:36.866Z,100003.17
2023-04-07T03:37:40.224Z,100001.38
2023-04-07T03:38:46.713Z,100002.34
2023-04-07T03:39:50.933Z,100000.52
2023-04-07T03:40:58.041Z,100006.67
2023-04-07T03:42:00.221Z,100001.38
2023-04-07T03:43:04.341Z,100004.02
2023-04-07T03:44:06.627Z,100003.17
2023-04-07T03:45:11.048Z,100004.02
2023-04-07T03:46:15.523Z,100002.34
2023-04-07T03:47:18.410Z,100003.17
2023-04-07T03:48:22.436Z,100011.13
2023-04-07T03:49:27.128Z,100015.48
2023-04-07T03:50:29.737Z,100007.53
2023-04-07T03:51:34.938Z,100011.98
2023-04-07T03:52:38.616Z,100011.98
2023-04-07T03:53:42.620Z,100008.38
2023-04-07T03:54:55.864Z,100018.87
2023-04-07T03:56:00.057Z,100013.69
2023-04-07T03:57:16.850Z,100016.22
2023-04-07T03:58:21.354Z,100016.13
2023-04-07T03:59:24.389Z,100023.23
2023-04-07T04:00:29.981Z,100022.38
2023-04-07T04:01:40.101Z,100026.82
2023-04-07T04:02:45.326Z,100023.23
2023-04-07T04:03:50.006Z,100027.67
2023-04-07T04:04:54.735Z,100032.12
2023-04-07T04:06:02.250Z,100039.14
2023-04-07T04:07:06.321Z,100028.53
2023-04-07T04:08:10.418Z,100034.69
2023-04-07T04:09:13.635Z,100039.02
2023-04-07T04:10:19.308Z,100044.31
2023-04-07T04:11:22.794Z,100038.92
2023-04-07T04:12:26.809Z,100043.25
2023-04-07T04:13:30.959Z,100037.95
2023-04-07T04:14:34.687Z,100044.97
2023-04-07T04:15:37.174Z,100043.16
2023-04-07T04:16:44.762Z,100044.02
2023-04-07T04:17:49.048Z,100046.55
2023-04-07T04:18:51.656Z,100042.95
2023-04-07T04:19:53.923Z,100044.63
2023-04-07T04:20:58.267Z,100053.44
2023-04-07T04:22:01.623Z,100041.16
2023-04-07T04:23:05.737Z,100046.46
2023-04-07T04:24:08.769Z,100047.19
2023-04-07T04:25:11.769Z,100045.39
2023-04-07T04:26:15.588Z,100046.34
2023-04-07T04:27:18.901Z,100043.59
2023-04-07T04:28:22.904Z,100049.64
2023-04-07T04:29:26.007Z,100052.16
2023-04-07T04:30:30.034Z,100052.08
2023-04-07T04:31:34.192Z,100052.08
2023-04-07T04:32:36.973Z,100057.37
2023-04-07T04:33:40.190Z,100059.18
2023-04-07T04:34:43.104Z,100057.37
2023-04-07T04:35:46.374Z,100059.06
2023-04-07T04:36:50.838Z,100059.91
2023-04-07T04:37:54.569Z,100066.07
2023-04-07T04:38:56.804Z,100060.89
2023-04-07T04:39:59.377Z,100062.56
2023-04-07T04:41:01.683Z,100066.19
2023-04-07T04:42:05.806Z,100069.58
2023-04-07T04:43:10.503Z,100070.52
2023-04-07T04:44:15.021Z,100067.78
2023-04-07T04:45:17.556Z,100074.77
2023-04-07T04:46:22.347Z,100076.47
2023-04-07T04:47:25.035Z,100067.66
2023-04-07T04:48:27.665Z,100070.19
2023-04-07T04:49:29.916Z,100078.06
2023-04-07T04:50:37.555Z,100077.11
2023-04-07T04:51:41.875Z,100077.11
2023-04-07T04:52:45.869Z,100072.62
2023-04-07T04:53:51.454Z,100074.34
2023-04-07T04:54:54.486Z,100078.70
2023-04-07T04:55:56.765Z,100084.53
2023-04-07T04:57:01.197Z,100085.26
2023-04-07T04:58:04.324Z,100085.99
2023-04-07T04:59:08.425Z,100088.43
2023-04-07T05:00:14.649Z,100085.69
2023-04-07T05:01:17.699Z,100090.66
2023-04-07T05:02:24.870Z,100092.38
2023-04-07T05:03:28.691Z,100085.91
2023-04-07T05:04:33.054Z,100090.05
2023-04-07T05:05:37.431Z,100085.47
2023-04-07T05:06:40.675Z,100092.37
2023-04-07T05:07:45.816Z,100097.46
2023-04-07T05:08:48.771Z,100093.73
2023-04-07T05:09:53.136Z,100090.87
2023-04-07T05:10:57.606Z,100092.45
2023-04-07T05:12:00.894Z,100097.64
2023-04-07T05:13:04.129Z,100104.44
2023-04-07T05:14:06.758Z,100098.70
2023-04-07T05:15:10.220Z,100104.39
2023-04-07T05:16:14.058Z,100106.61
2023-04-07T05:17:16.950Z,100109.69
2023-04-07T05:18:19.534Z,100112.63
2023-04-07T05:19:23.557Z,100115.57
2023-04-07T05:20:28.016Z,100109.69
2023-04-07T05:21:30.626Z,100110.83
2023-04-07T05:22:34.535Z,100114.93
2023-04-07T05:23:37.096Z,100117.37
2023-04-07T05:24:40.510Z,100122.14
2023-04-07T05:26:02.564Z,100131.56
2023-04-07T05:27:05.789Z,100128.68
2023-04-07T05:28:08.096Z,100124.09
2023-04-07T05:29:10.878Z,100128.33
2023-04-07T05:30:14.942Z,100126.92
2023-04-07T05:31:17.472Z,100124.04
2023-04-07T05:32:21.751Z,100132.97
2023-04-07T05:33:25.143Z,100134.05
2023-04-07T05:34:28.488Z,100129.08
2023-04-07T05:35:30.989Z,100135.45
2023-04-07T05:36:36.780Z,100132.06
2023-04-07T05:37:39.117Z,100137.52
2023-04-07T05:38:41.972Z,100138.59
2023-04-07T05:39:46.112Z,100132.64
2023-04-07T05:40:49.649Z,100145.80
2023-04-07T05:42:03.100Z,100146.66
2023-04-07T05:43:05.855Z,100143.28
2023-04-07T05:44:10.009Z,100153.19
2023-04-07T05:45:14.521Z,100153.41
2023-04-07T05:46:20.387Z,100147.45
2023-04-07T05:47:24.775Z,100145.75
2023-04-07T05:48:27.051Z,100148.41
2023-04-07T05:49:30.999Z,100151.19
2023-04-07T05:50:35.803Z,100149.39
2023-04-07T05:51:39.864Z,100149.48
2023-04-07T05:52:44.007Z,100149.61
2023-04-07T05:53:47.945Z,100152.48
2023-04-07T05:54:51.958Z,100155.27
2023-04-07T05:55:55.397Z,100151.86
2023-04-07T05:56:59.916Z,100147.52
2023-04-07T05:58:05.081Z,100152.84
2023-04-07T05:59:10.106Z,100144.95
2023-04-07T06:00:16.071Z,100155.49
2023-04-07T06:01:19.944Z,100151.98
2023-04-07T06:02:23.217Z,100156.34
2023-04-07T06:03:27.518Z,100157.17
2023-04-07T06:04:31.776Z,100158.16
2023-04-07T06:05:35.453Z,100161.88
2023-04-07T06:06:38.406Z,100166.22
2023-04-07T06:07:40.744Z,100157.39
2023-04-07T06:08:43.693Z,100159.23
2023-04-07T06:09:48.233Z,100169.73
2023-04-07T06:10:50.749Z,100162.61
2023-04-07T06:11:55.617Z,100164.41
2023-04-07T06:13:00.394Z,100165.27
2023-04-07T06:14:02.971Z,100170.58
2023-04-07T06:15:06.661Z,100169.73
2023-04-07T06:16:09.958Z,100168.78
2023-04-07T06:17:13.048Z,100165.36
2023-04-07T06:18:15.404Z,100164.54
2023-04-07T06:19:17.700Z,100175.05
2023-04-07T06:20:21.281Z,100174.95
2023-04-07T06:21:23.672Z,100170.45
2023-04-07T06:22:26.952Z,100168.78
2023-04-07T06:23:29.316Z,100173.23
2023-04-07T06:24:31.508Z,100171.44
2023-04-07T06:25:33.819Z,100179.28
2023-04-07T06:26:37.275Z,100174.83
2023-04-07T06:27:40.597Z,100176.53
2023-04-07T06:28:43.259Z,100190.55
2023-04-07T06:29:46.300Z,100177.98
2023-04-07T06:30:49.800Z,100179.80
2023-04-07T06:31:52.716Z,100186.69
2023-04-07T06:32:55.108Z,100191.06
2023-04-07T06:33:58.569Z,100188.27
2023-04-07T06:35:00.891Z,100195.30
2023-04-07T06:36:04.219Z,100188.18
2023-04-07T06:37:07.388Z,100198.59
2023-04-07T06:38:09.617Z,100187.95
2023-04-07T06:39:12.102Z,100194.13
2023-04-07T06:40:16.229Z,100195.94
2023-04-07T06:41:18.588Z,100192.20
2023-04-07T06:42:20.544Z,100196.56
2023-04-07T06:43:27.968Z,100199.95
2023-04-07T06:44:32.123Z,100193.56
2023-04-07T06:45:35.086Z,100197.80
2023-04-07T06:46:38.735Z,100194.20
2023-04-07T06:47:41.013Z,100191.53
2023-04-07T06:48:43.351Z,100197.67
2023-04-07T06:49:45.412Z,100197.67
2023-04-07T06:50:50.629Z,100195.02
2023-04-07T06:51:52.984Z,100202.99
2023-04-07T06:52:55.062Z,100199.25
2023-04-07T06:53:57.199Z,100200.11
2023-04-07T06:54:59.844Z,100202.45
2023-04-07T06:57:14.369Z,100205.67
2023-04-07T06:58:16.600Z,100203.91
2023-04-07T06:59:18.681Z,100206.47
2023-04-07T07:00:21.142Z,100211.44
2023-04-07T07:01:23.263Z,100212.06
2023-04-07T07:02:25.474Z,100213.65
2023-04-07T07:03:29.689Z,100209.78
2023-04-07T07:04:33.488Z,100205.19
2023-04-07T07:05:36.760Z,100213.07
2023-04-07T07:06:39.299Z,100204.14
2023-04-07T07:07:42.000Z,100203.06
2023-04-07T07:08:45.226Z,100202.93
2023-04-07T07:09:48.002Z,100203.66
2023-04-07T07:10:50.972Z,100204.41
2023-04-07T07:11:53.297Z,100212.17
2023-04-07T07:12:56.699Z,100204.91
2023-04-07T07:13:58.914Z,100207.38
2023-04-07T07:15:01.152Z,100204.48
2023-04-07T07:16:04.814Z,100207.74
2023-04-07T07:17:07.158Z,100203.05
2023-04-07T07:18:09.207Z,100201.01
2023-04-07T07:19:12.373Z,100206.92
2023-04-07T07:20:16.712Z,100212.02
2023-04-07T07:24:25.770Z,100214.94
2023-04-07T07:25:27.932Z,100209.39
2023-04-07T07:26:30.290Z,100213.53
2023-04-07T07:27:32.492Z,100207.11
2023-04-07T07:28:35.028Z,100200.57
2023-04-07T07:29:37.364Z,100211.84
2023-04-07T07:30:40.481Z,100210.52
2023-04-07T07:31:43.191Z,100217.81
2023-04-07T07:32:45.489Z,100214.55
2023-04-07T07:33:47.874Z,100214.31
2023-04-07T07:34:50.673Z,100210.64
2023-04-07T07:35:52.882Z,100205.05
2023-04-07T07:36:56.556Z,100198.66
2023-04-07T07:37:58.874Z,100206.92
2023-04-07T07:39:01.065Z,100200.02
2023-04-07T07:40:04.655Z,100208.23
2023-04-07T07:41:08.003Z,100206.15
2023-04-07T07:42:10.440Z,100204.27
2023-04-07T07:43:13.660Z,100210.54
2023-04-07T07:44:16.394Z,100204.28
2023-04-07T07:46:20.740Z,100208.84
2023-04-07T07:48:25.188Z,100198.45
2023-04-07T07:49:27.236Z,100204.64
2023-04-07T07:52:35.073Z,100206.20
2023-04-07T08:03:59.146Z,100201.05
2023-04-07T08:05:02.858Z,100214.11
2023-04-07T08:07:07.990Z,100207.45
2023-04-07T08:09:13.398Z,100207.22
2023-04-07T08:10:15.491Z,100204.70
2023-04-07T08:12:19.650Z,100206.96
2023-04-07T08:13:22.431Z,100204.94
2023-04-07T08:14:24.919Z,100204.94
2023-04-07T08:15:26.986Z,100202.07
2023-04-07T08:16:29.420Z,100201.92
2023-04-07T08:17:31.873Z,100202.59
2023-04-07T08:19:36.123Z,100203.13
2023-04-07T08:20:38.605Z,100205.81
2023-04-07T08:21:40.685Z,100201.28
2023-04-07T08:22:42.873Z,100202.27
2023-04-07T08:23:45.010Z,100207.80
2023-04-07T08:24:47.265Z,100205.29
2023-04-07T08:25:49.454Z,100203.45
2023-04-07T08:26:52.277Z,100210.67
2023-04-07T08:27:54.995Z,100205.29
2023-04-07T08:28:58.323Z,100204.97
2023-04-07T08:30:02.877Z,100205.64
2023-04-07T08:31:05.617Z,100197.91
2023-04-07T08:32:07.742Z,100205.02
2023-04-07T08:33:09.838Z,100203.89
2023-04-07T08:34:12.054Z,100205.60
2023-04-07T08:35:14.104Z,100209.97
2023-04-07T08:36:18.482Z,100207.47
2023-04-07T08:37:20.850Z,100205.30
2023-04-07T08:38:23.551Z,100206.63
2023-04-07T08:39:26.652Z,100204.30
2023-04-07T08:40:29.063Z,100206.47
2023-04-07T08:41:37.823Z,100205.30
2023-04-07T08:42:41.851Z,100207.14
2023-04-07T08:43:44.662Z,100203.95
2023-04-07T08:44:47.782Z,100211.52
2023-04-07T08:45:52.975Z,100212.38
2023-04-07T08:47:59.617Z,100204.94
2023-04-07T08:51:13.629Z,100211.16
2023-04-07T08:56:32.604Z,100211.19
2023-04-07T09:13:15.975Z,100208.30
2023-04-07T09:15:21.774Z,100207.45
2023-04-07T09:18:31.820Z,100207.78
2023-04-07T09:21:03.464Z,100209.48
2023-04-07T09:22:06.132Z,100212.00
2023-04-07T09:23:11.899Z,100205.43
2023-04-07T09:25:36.091Z,100203.44
2023-04-07T09:26:38.357Z,100208.30
2023-04-07T09:27:41.238Z,100211.84
2023-04-07T09:28:48.853Z,100211.67
2023-04-07T09:29:54.420Z,100209.83
2023-04-07T09:30:56.624Z,100208.83
2023-04-07T09:31:58.728Z,100208.83
2023-04-07T09:33:01.706Z,100210.49
2023-04-07T09:35:14.280Z,100205.11
2023-04-07T09:36:17.113Z,100211.84
2023-04-07T09:37:21.867Z,100209.97
2023-04-07T09:38:27.653Z,100209.16
2023-04-07T09:39:30.322Z,100216.54
2023-04-07T09:40:33.603Z,100213.03
2023-04-07T09:41:35.799Z,100215.72
2023-04-07T09:42:45.656Z,100216.72
2023-04-07T09:43:49.054Z,100207.64
2023-04-07T09:44:51.449Z,100214.88
2023-04-07T09:45:57.362Z,100210.33
2023-04-07T09:47:00.007Z,100212.18
2023-04-07T09:48:12.230Z,100209.30
2023-04-07T09:49:14.450Z,100220.08
2023-04-07T09:50:34.446Z,100215.55
2023-04-07T09:51:38.154Z,100214.36
2023-04-07T09:52:53.129Z,100217.06
2023-04-07T09:53:55.533Z,100213.37
2023-04-07T09:54:59.105Z,100216.21
2023-04-07T09:56:02.509Z,100215.22
2023-04-07T09:57:09.931Z,100213.52
2023-04-07T09:58:12.716Z,100217.91
2023-04-07T09:59:15.962Z,100212.67
2023-04-07T10:00:19.506Z,100218.76
2023-04-07T10:01:22.638Z,100217.06
2023-04-07T10:02:25.674Z,100213.52
2023-04-07T10:03:28.899Z,100216.06
2023-04-07T10:04:31.802Z,100217.06
2023-04-07T10:05:34.880Z,100219.75
2023-04-07T10:06:38.298Z,100217.91
2023-04-07T10:07:42.716Z,100217.91
2023-04-07T10:08:46.493Z,100214.36
2023-04-07T10:09:48.907Z,100215.22
2023-04-07T10:10:51.894Z,100223.30
2023-04-07T10:11:56.228Z,100226.99
2023-04-07T10:12:59.119Z,100226.14
2023-04-07T10:14:01.247Z,100227.17
2023-04-07T10:15:05.818Z,100221.78
2023-04-07T10:16:08.334Z,100229.02
2023-04-07T10:17:11.528Z,100221.93
2023-04-07T10:18:14.251Z,100219.41
2023-04-07T10:19:16.890Z,100215.88
2023-04-07T10:20:19.463Z,100226.50
2023-04-07T10:21:23.591Z,100225.66
2023-04-07T10:22:27.418Z,100224.80
2023-04-07T10:23:42.096Z,100224.13
2023-04-07T10:24:57.371Z,100226.83
2023-04-07T10:26:00.792Z,100227.83
2023-04-07T10:27:07.109Z,100230.52
2023-04-07T10:28:10.212Z,100216.37
2023-04-07T10:29:13.540Z,100224.46
2023-04-07T10:30:30.709Z,100225.46
2023-04-07T10:31:34.150Z,100227.30
2023-04-07T10:32:47.401Z,100223.80
2023-04-07T10:33:52.797Z,100221.91
2023-04-07T10:34:56.375Z,100212.31
2023-04-07T10:36:06.539Z,100222.09
2023-04-07T10:37:11.804Z,100223.94
2023-04-07T10:38:14.293Z,100225.78
2023-04-07T10:39:19.031Z,100223.94
2023-04-07T10:40:25.215Z,100218.88
2023-04-07T10:42:55.804Z,100221.91
2023-04-07T10:44:00.062Z,100222.70
2023-04-07T10:45:03.451Z,100220.18
2023-04-07T10:46:05.943Z,100218.66
2023-04-07T10:47:08.082Z,100217.95
2023-04-07T10:48:12.643Z,100217.28
2023-04-07T10:49:18.427Z,100223.00
2023-04-07T10:50:22.862Z,100217.61
2023-04-07T10:51:24.990Z,100216.09
2023-04-07T10:52:27.077Z,100221.47
2023-04-07T10:53:29.146Z,100224.17
2023-04-07T10:54:31.312Z,100222.64
2023-04-07T10:55:39.384Z,100222.83
2023-04-07T10:57:05.754Z,100219.28
2023-04-07T10:58:30.463Z,100217.58
2023-04-07T10:59:33.369Z,100222.12
2023-04-07T11:00:36.929Z,100220.45
2023-04-07T11:01:39.232Z,100225.98
2023-04-07T11:02:41.778Z,100217.05
2023-04-07T11:03:56.228Z,100221.77
2023-04-07T11:04:58.682Z,100221.09
2023-04-07T11:06:05.414Z,100224.78
2023-04-07T11:07:09.107Z,100222.09
2023-04-07T11:08:11.315Z,100220.42
2023-04-07T11:09:21.056Z,100219.58
2023-04-07T11:10:24.487Z,100223.12
2023-04-07T11:11:38.385Z,100212.48
2023-04-07T11:12:40.495Z,100216.03
2023-04-07T11:13:48.372Z,100212.48
2023-04-07T11:14:50.772Z,100217.03
2023-04-07T11:15:54.190Z,100218.87
2023-04-07T11:16:57.604Z,100214.66
2023-04-07T11:19:53.645Z,100210.85
2023-04-07T11:20:58.243Z,100207.92
2023-04-07T11:22:29.405Z,100212.45
2023-04-07T11:23:23.119Z,100209.94
2023-04-07T11:24:35.161Z,100216.99
2023-04-07T11:25:37.934Z,100208.25
2023-04-07T11:26:41.271Z,100213.80
2023-04-07T11:27:44.399Z,100208.74
2023-04-07T11:28:51.847Z,100215.30
2023-04-07T11:29:53.974Z,100212.07
2023-04-07T11:30:57.175Z,100207.18
2023-04-07T11:32:01.653Z,100204.10
2023-04-07T11:33:03.900Z,100212.67
2023-04-07T11:34:06.055Z,100214.01
2023-04-07T11:35:10.653Z,100208.23
2023-04-07T11:36:14.249Z,100210.42
2023-04-07T11:37:22.710Z,100210.73
2023-04-07T11:38:26.953Z,100212.72
2023-04-07T11:39:28.969Z,100212.89
2023-04-07T11:41:48.098Z,100209.58
2023-04-07T11:42:50.588Z,100205.59
2023-04-07T11:44:07.265Z,100208.28
2023-04-07T11:45:19.346Z,100208.42
2023-04-07T11:46:23.403Z,100211.96
2023-04-07T11:47:39.902Z,100211.96
2023-04-07T11:48:45.312Z,100204.06
2023-04-07T11:49:49.132Z,100206.05
2023-04-07T11:50:51.407Z,100209.76
2023-04-07T11:52:05.134Z,100214.28
2023-04-07T11:53:07.395Z,100206.39
2023-04-07T11:54:09.659Z,100207.55
2023-04-07T11:55:22.623Z,100202.48
2023-04-07T11:56:26.467Z,100211.55
2023-04-07T11:57:29.025Z,100216.38
2023-04-07T11:58:31.476Z,100206.78
2023-04-07T11:59:33.640Z,100205.12
2023-04-07T12:00:36.026Z,100212.34
2023-04-07T12:01:39.857Z,100205.94
2023-04-07T12:02:42.318Z,100206.11
2023-04-07T12:04:02.710Z,100203.56
2023-04-07T12:05:06.615Z,100204.58
2023-04-07T12:06:10.245Z,100209.11
2023-04-07T12:07:12.401Z,100211.80
2023-04-07T12:08:14.477Z,100208.94
2023-04-07T12:09:33.396Z,100203.56
2023-04-07T12:10:38.286Z,100200.73
2023-04-07T12:12:58.163Z,100191.56
2023-04-07T12:14:00.212Z,100201.22
2023-04-07T12:15:03.445Z,100197.67
2023-04-07T12:16:06.303Z,100196.66
2023-04-07T12:18:21.375Z,100194.56
2023-04-07T12:19:26.194Z,100198.66
2023-04-07T12:20:29.031Z,100194.98
2023-04-07T12:21:31.080Z,100199.20
2023-04-07T12:22:33.258Z,100204.41
2023-04-07T12:23:36.470Z,100194.36
2023-04-07T12:25:47.838Z,100191.92
2023-04-07T12:26:49.966Z,100200.42
2023-04-07T12:27:52.046Z,100199.40
2023-04-07T12:28:54.103Z,100196.71
2023-04-07T12:29:56.286Z,100196.71
2023-04-07T12:30:59.830Z,100195.05
2023-04-07T12:32:02.408Z,100205.12
2023-04-07T12:33:05.843Z,100200.73
2023-04-07T12:34:09.204Z,100194.50
2023-04-07T12:35:11.445Z,100196.34
2023-04-07T12:36:14.511Z,100193.29
2023-04-07T12:37:16.872Z,100198.12
2023-04-07T12:38:20.187Z,100190.23
2023-04-07T12:39:23.481Z,100189.38
2023-04-07T12:40:26.157Z,100193.91
2023-04-07T12:41:28.225Z,100190.54
2023-04-07T12:42:31.441Z,100192.23
2023-04-07T12:43:34.202Z,100183.47
2023-04-07T12:44:36.887Z,100191.70
2023-04-07T12:45:39.177Z,100187.31
2023-04-07T12:46:42.911Z,100187.31
2023-04-07T12:47:45.097Z,100188.02
2023-04-07T12:48:47.332Z,100190.23
2023-04-07T12:49:50.247Z,100180.87
2023-04-07T12:50:52.843Z,100181.23
2023-04-07T12:51:54.990Z,100190.66
2023-04-07T12:52:57.879Z,100184.28
2023-04-07T12:54:00.883Z,100188.64
2023-04-07T12:55:04.971Z,100182.27
2023-04-07T12:56:08.740Z,100179.59
2023-04-07T12:57:11.934Z,100184.96
2023-04-07T12:58:14.059Z,100176.89
2023-04-07T12:59:16.147Z,100182.27
2023-04-07T13:00:19.712Z,100188.33
2023-04-07T13:01:22.137Z,100181.28
2023-04-07T13:02:25.610Z,100184.66
2023-04-07T13:03:28.017Z,100191.87
2023-04-07T13:04:32.082Z,100188.19
2023-04-07T13:05:35.423Z,100178.28
2023-04-07T13:06:37.951Z,100177.58
2023-04-07T13:07:40.034Z,100180.44
2023-04-07T13:08:42.421Z,100186.80
2023-04-07T13:09:44.572Z,100179.90
2023-04-07T13:10:46.948Z,100181.23
2023-04-07T13:11:49.135Z,100182.05
2023-04-07T13:12:52.354Z,100183.07
2023-04-07T13:13:56.464Z,100175.99
2023-04-07T13:15:00.464Z,100177.16
2023-04-07T13:16:04.061Z,100181.86
2023-04-07T13:17:07.383Z,100191.08
2023-04-07T13:18:09.920Z,100182.48
2023-04-07T13:19:12.130Z,100180.09
2023-04-07T13:20:19.338Z,100184.97
2023-04-07T13:21:43.783Z,100187.80
2023-04-07T13:22:24.616Z,100186.09
2023-04-07T13:23:28.177Z,100187.96
2023-04-07T13:24:32.293Z,100188.09
2023-04-07T13:25:35.574Z,100195.31
2023-04-07T13:26:37.764Z,100186.57
2023-04-07T13:27:40.798Z,100190.11
2023-04-07T13:28:43.014Z,100190.25
2023-04-07T13:29:44.977Z,100191.95
2023-04-07T13:30:48.535Z,100188.58
2023-04-07T13:31:51.427Z,100192.25
2023-04-07T13:32:54.030Z,100188.03